sensor_id;sensor_type;location;lat;lon;timestamp;temperature;humidity
3334;DHT22;1679;50.392;8.008;2023-07-16T00:00:15;20.30;99.90
3334;DHT22;1679;50.392;8.008;2023-07-16T00:02:43;20.30;99.90
3334;DHT22;1679;50.392;8.008;2023-07-16T00:05:09;20.20;99.90
3334;DHT22;1679;50.392;8.008;2023-07-16T00:07:35;20.20;99.90
3334;DHT22;1679;50.392;8.008;2023-07-16T00:10:01;20.10;99.90
3334;DHT22;1679;50.392;8.008;2023-07-16T00:12:27;20.10;99.90
3334;DHT22;1679;50.392;8.008;2023-07-16T00:14:53;20.00;99.90
3334;DHT22;1679;50.392;8.008;2023-07-16T00:17:18;20.00;99.90
3334;DHT22;1679;50.392;8.008;2023-07-16T00:19:44;20.00;99.90
3334;DHT22;1679;50.392;8.008;2023-07-16T00:22:09;20.00;99.90
3334;DHT22;1679;50.392;8.008;2023-07-16T00:24:35;20.00;99.90
3334;DHT22;1679;50.392;8.008;2023-07-16T00:27:00;20.00;99.90
3334;DHT22;1679;50.392;8.008;2023-07-16T00:29:26;19.90;99.90
3334;DHT22;1679;50.392;8.008;2023-07-16T00:31:51;19.90;99.90
3334;DHT22;1679;50.392;8.008;2023-07-16T00:34:17;19.90;99.90
3334;DHT22;1679;50.392;8.008;2023-07-16T00:36:42;20.00;99.90
3334;DHT22;1679;50.392;8.008;2023-07-16T00:39:08;20.00;99.90
3334;DHT22;1679;50.392;8.008;2023-07-16T00:41:34;19.90;99.90
3334;DHT22;1679;50.392;8.008;2023-07-16T00:43:59;19.90;99.90
3334;DHT22;1679;50.392;8.008;2023-07-16T00:46:25;19.90;99.90
3334;DHT22;1679;50.392;8.008;2023-07-16T00:48:52;19.90;99.90
3334;DHT22;1679;50.392;8.008;2023-07-16T00:51:18;19.90;99.90
3334;DHT22;1679;50.392;8.008;2023-07-16T00:53:44;19.90;99.90
3334;DHT22;1679;50.392;8.008;2023-07-16T00:56:10;19.90;99.90
3334;DHT22;1679;50.392;8.008;2023-07-16T00:58:37;19.90;99.90
3334;DHT22;1679;50.392;8.008;2023-07-16T01:01:03;19.90;99.90
3334;DHT22;1679;50.392;8.008;2023-07-16T01:03:28;19.80;99.90
3334;DHT22;1679;50.392;8.008;2023-07-16T01:06:17;19.80;99.90
3334;DHT22;1679;50.392;8.008;2023-07-16T01:08:57;19.80;99.90
3334;DHT22;1679;50.392;8.008;2023-07-16T01:11:27;19.70;99.90
3334;DHT22;1679;50.392;8.008;2023-07-16T01:13:53;19.70;99.90
3334;DHT22;1679;50.392;8.008;2023-07-16T01:16:20;19.70;99.90
3334;DHT22;1679;50.392;8.008;2023-07-16T01:18:48;19.70;99.90
3334;DHT22;1679;50.392;8.008;2023-07-16T01:21:16;19.70;99.90
3334;DHT22;1679;50.392;8.008;2023-07-16T01:24:13;19.80;99.90
3334;DHT22;1679;50.392;8.008;2023-07-16T01:27:14;19.80;99.90
3334;DHT22;1679;50.392;8.008;2023-07-16T01:29:51;19.80;99.90
3334;DHT22;1679;50.392;8.008;2023-07-16T01:32:20;19.70;99.90
3334;DHT22;1679;50.392;8.008;2023-07-16T01:34:46;19.70;99.90
3334;DHT22;1679;50.392;8.008;2023-07-16T01:37:12;19.70;99.90
3334;DHT22;1679;50.392;8.008;2023-07-16T01:39:38;19.60;99.90
3334;DHT22;1679;50.392;8.008;2023-07-16T01:42:04;19.50;99.90
3334;DHT22;1679;50.392;8.008;2023-07-16T01:44:31;19.40;99.90
3334;DHT22;1679;50.392;8.008;2023-07-16T01:49:38;19.30;99.90
3334;DHT22;1679;50.392;8.008;2023-07-16T01:52:04;19.20;99.90
3334;DHT22;1679;50.392;8.008;2023-07-16T01:54:30;19.20;99.90
3334;DHT22;1679;50.392;8.008;2023-07-16T01:56:55;19.10;99.90
3334;DHT22;1679;50.392;8.008;2023-07-16T01:59:21;19.10;99.90
3334;DHT22;1679;50.392;8.008;2023-07-16T02:01:46;19.00;99.90
3334;DHT22;1679;50.392;8.008;2023-07-16T02:04:13;19.00;99.90
3334;DHT22;1679;50.392;8.008;2023-07-16T02:06:38;19.00;99.90
3334;DHT22;1679;50.392;8.008;2023-07-16T02:09:05;18.90;99.90
3334;DHT22;1679;50.392;8.008;2023-07-16T02:11:31;18.90;99.90
3334;DHT22;1679;50.392;8.008;2023-07-16T02:13:58;18.80;99.90
3334;DHT22;1679;50.392;8.008;2023-07-16T02:16:23;18.80;99.90
3334;DHT22;1679;50.392;8.008;2023-07-16T02:18:49;18.70;99.90
3334;DHT22;1679;50.392;8.008;2023-07-16T02:21:15;18.70;99.90
3334;DHT22;1679;50.392;8.008;2023-07-16T02:23:40;18.70;99.90
3334;DHT22;1679;50.392;8.008;2023-07-16T02:26:06;18.70;99.90
3334;DHT22;1679;50.392;8.008;2023-07-16T02:28:31;18.60;99.90
3334;DHT22;1679;50.392;8.008;2023-07-16T02:30:58;18.60;99.90
3334;DHT22;1679;50.392;8.008;2023-07-16T02:33:23;18.50;99.90
3334;DHT22;1679;50.392;8.008;2023-07-16T02:35:50;18.50;99.90
3334;DHT22;1679;50.392;8.008;2023-07-16T02:38:17;18.50;99.90
3334;DHT22;1679;50.392;8.008;2023-07-16T02:40:47;18.40;99.90
3334;DHT22;1679;50.392;8.008;2023-07-16T02:43:14;18.40;99.90
3334;DHT22;1679;50.392;8.008;2023-07-16T02:45:39;18.40;99.90
3334;DHT22;1679;50.392;8.008;2023-07-16T02:48:06;18.40;99.90
3334;DHT22;1679;50.392;8.008;2023-07-16T02:50:38;18.30;99.90
3334;DHT22;1679;50.392;8.008;2023-07-16T02:53:05;18.30;99.90
3334;DHT22;1679;50.392;8.008;2023-07-16T02:55:31;18.30;99.90
3334;DHT22;1679;50.392;8.008;2023-07-16T02:57:56;18.30;99.90
3334;DHT22;1679;50.392;8.008;2023-07-16T03:00:22;18.30;99.90
3334;DHT22;1679;50.392;8.008;2023-07-16T03:02:48;18.30;99.90
3334;DHT22;1679;50.392;8.008;2023-07-16T03:05:16;18.20;99.90
3334;DHT22;1679;50.392;8.008;2023-07-16T03:07:41;18.20;99.90
3334;DHT22;1679;50.392;8.008;2023-07-16T03:10:07;18.20;99.90
3334;DHT22;1679;50.392;8.008;2023-07-16T03:12:34;18.20;99.90
3334;DHT22;1679;50.392;8.008;2023-07-16T03:14:59;18.20;99.90
3334;DHT22;1679;50.392;8.008;2023-07-16T03:17:25;18.10;99.90
3334;DHT22;1679;50.392;8.008;2023-07-16T03:19:52;18.10;99.90
3334;DHT22;1679;50.392;8.008;2023-07-16T03:22:17;18.10;99.90
3334;DHT22;1679;50.392;8.008;2023-07-16T03:24:43;18.10;99.90
3334;DHT22;1679;50.392;8.008;2023-07-16T03:27:08;18.00;99.90
3334;DHT22;1679;50.392;8.008;2023-07-16T03:29:34;18.00;99.90
3334;DHT22;1679;50.392;8.008;2023-07-16T03:31:59;18.00;99.90
3334;DHT22;1679;50.392;8.008;2023-07-16T03:34:25;18.00;99.90
3334;DHT22;1679;50.392;8.008;2023-07-16T03:36:50;18.00;99.90
3334;DHT22;1679;50.392;8.008;2023-07-16T03:39:17;18.00;99.90
3334;DHT22;1679;50.392;8.008;2023-07-16T03:41:43;17.90;99.90
3334;DHT22;1679;50.392;8.008;2023-07-16T03:44:08;17.90;99.90
3334;DHT22;1679;50.392;8.008;2023-07-16T03:46:34;17.90;99.90
3334;DHT22;1679;50.392;8.008;2023-07-16T03:49:00;17.90;99.90
3334;DHT22;1679;50.392;8.008;2023-07-16T03:51:27;17.90;99.90
3334;DHT22;1679;50.392;8.008;2023-07-16T03:53:52;17.90;99.90
3334;DHT22;1679;50.392;8.008;2023-07-16T03:56:18;17.90;99.90
3334;DHT22;1679;50.392;8.008;2023-07-16T03:58:43;17.90;99.90
3334;DHT22;1679;50.392;8.008;2023-07-16T04:01:10;17.90;99.90
3334;DHT22;1679;50.392;8.008;2023-07-16T04:03:36;17.80;99.90
3334;DHT22;1679;50.392;8.008;2023-07-16T04:06:06;17.80;99.90
3334;DHT22;1679;50.392;8.008;2023-07-16T04:08:34;17.80;99.90
3334;DHT22;1679;50.392;8.008;2023-07-16T04:11:00;17.80;99.90
3334;DHT22;1679;50.392;8.008;2023-07-16T04:13:26;17.80;99.90
3334;DHT22;1679;50.392;8.008;2023-07-16T04:15:51;17.80;99.90
3334;DHT22;1679;50.392;8.008;2023-07-16T04:18:18;17.80;99.90
3334;DHT22;1679;50.392;8.008;2023-07-16T04:20:44;17.80;99.90
3334;DHT22;1679;50.392;8.008;2023-07-16T04:23:09;17.80;99.90
3334;DHT22;1679;50.392;8.008;2023-07-16T04:25:35;17.80;99.90
3334;DHT22;1679;50.392;8.008;2023-07-16T04:28:00;17.80;99.90
3334;DHT22;1679;50.392;8.008;2023-07-16T04:30:29;17.90;99.90
3334;DHT22;1679;50.392;8.008;2023-07-16T04:32:54;17.80;99.90
3334;DHT22;1679;50.392;8.008;2023-07-16T04:35:21;17.80;99.90
3334;DHT22;1679;50.392;8.008;2023-07-16T04:37:47;17.80;99.90
3334;DHT22;1679;50.392;8.008;2023-07-16T04:40:14;17.80;99.90
3334;DHT22;1679;50.392;8.008;2023-07-16T04:42:39;17.90;99.90
3334;DHT22;1679;50.392;8.008;2023-07-16T04:45:06;17.80;99.90
3334;DHT22;1679;50.392;8.008;2023-07-16T04:47:32;17.80;99.90
3334;DHT22;1679;50.392;8.008;2023-07-16T04:49:58;17.90;99.90
3334;DHT22;1679;50.392;8.008;2023-07-16T04:52:25;17.90;99.90
3334;DHT22;1679;50.392;8.008;2023-07-16T04:54:50;17.90;99.90
3334;DHT22;1679;50.392;8.008;2023-07-16T04:57:16;17.90;99.90
3334;DHT22;1679;50.392;8.008;2023-07-16T04:59:42;18.00;99.90
3334;DHT22;1679;50.392;8.008;2023-07-16T05:02:07;18.00;99.90
3334;DHT22;1679;50.392;8.008;2023-07-16T05:04:33;18.10;99.90
3334;DHT22;1679;50.392;8.008;2023-07-16T05:07:00;18.00;99.90
3334;DHT22;1679;50.392;8.008;2023-07-16T05:09:26;18.00;99.90
3334;DHT22;1679;50.392;8.008;2023-07-16T05:11:51;18.10;99.90
3334;DHT22;1679;50.392;8.008;2023-07-16T05:14:17;18.10;99.90
3334;DHT22;1679;50.392;8.008;2023-07-16T05:16:43;18.10;99.90
3334;DHT22;1679;50.392;8.008;2023-07-16T05:19:08;18.10;99.90
3334;DHT22;1679;50.392;8.008;2023-07-16T05:21:35;18.10;99.90
3334;DHT22;1679;50.392;8.008;2023-07-16T05:24:00;18.20;99.90
3334;DHT22;1679;50.392;8.008;2023-07-16T05:26:26;18.20;99.90
3334;DHT22;1679;50.392;8.008;2023-07-16T05:28:51;18.20;99.90
3334;DHT22;1679;50.392;8.008;2023-07-16T05:31:17;18.30;99.90
3334;DHT22;1679;50.392;8.008;2023-07-16T05:33:42;18.30;99.90
3334;DHT22;1679;50.392;8.008;2023-07-16T05:36:08;18.40;99.90
3334;DHT22;1679;50.392;8.008;2023-07-16T05:38:33;18.40;99.90
3334;DHT22;1679;50.392;8.008;2023-07-16T05:41:04;18.40;99.90
3334;DHT22;1679;50.392;8.008;2023-07-16T05:43:31;18.40;99.90
3334;DHT22;1679;50.392;8.008;2023-07-16T05:45:58;18.50;99.90
3334;DHT22;1679;50.392;8.008;2023-07-16T05:48:24;18.50;99.90
3334;DHT22;1679;50.392;8.008;2023-07-16T05:50:50;18.50;99.90
3334;DHT22;1679;50.392;8.008;2023-07-16T05:53:16;18.50;99.90
3334;DHT22;1679;50.392;8.008;2023-07-16T05:55:42;18.60;99.90
3334;DHT22;1679;50.392;8.008;2023-07-16T05:58:08;18.60;99.90
3334;DHT22;1679;50.392;8.008;2023-07-16T06:00:34;18.70;99.90
3334;DHT22;1679;50.392;8.008;2023-07-16T06:03:02;18.70;99.90
3334;DHT22;1679;50.392;8.008;2023-07-16T06:05:28;18.70;99.90
3334;DHT22;1679;50.392;8.008;2023-07-16T06:07:57;18.70;99.90
3334;DHT22;1679;50.392;8.008;2023-07-16T06:10:24;18.80;99.90
3334;DHT22;1679;50.392;8.008;2023-07-16T06:12:50;18.80;99.90
3334;DHT22;1679;50.392;8.008;2023-07-16T06:15:15;18.90;99.90
3334;DHT22;1679;50.392;8.008;2023-07-16T06:17:41;19.00;99.90
3334;DHT22;1679;50.392;8.008;2023-07-16T06:20:07;19.00;99.90
3334;DHT22;1679;50.392;8.008;2023-07-16T06:22:33;19.10;99.90
3334;DHT22;1679;50.392;8.008;2023-07-16T06:24:59;19.10;99.90
3334;DHT22;1679;50.392;8.008;2023-07-16T06:27:25;19.10;99.90
3334;DHT22;1679;50.392;8.008;2023-07-16T06:29:50;19.20;99.90
3334;DHT22;1679;50.392;8.008;2023-07-16T06:32:19;19.30;99.90
3334;DHT22;1679;50.392;8.008;2023-07-16T06:34:44;19.30;99.90
3334;DHT22;1679;50.392;8.008;2023-07-16T06:37:10;19.30;99.90
3334;DHT22;1679;50.392;8.008;2023-07-16T06:39:35;19.40;99.90
3334;DHT22;1679;50.392;8.008;2023-07-16T06:42:01;19.50;99.90
3334;DHT22;1679;50.392;8.008;2023-07-16T06:44:26;19.70;99.90
3334;DHT22;1679;50.392;8.008;2023-07-16T06:46:53;19.80;99.90
3334;DHT22;1679;50.392;8.008;2023-07-16T06:49:21;20.00;99.90
3334;DHT22;1679;50.392;8.008;2023-07-16T06:51:46;20.10;99.90
3334;DHT22;1679;50.392;8.008;2023-07-16T06:54:13;20.30;99.90
3334;DHT22;1679;50.392;8.008;2023-07-16T06:56:40;20.40;99.90
3334;DHT22;1679;50.392;8.008;2023-07-16T06:59:05;20.60;99.90
3334;DHT22;1679;50.392;8.008;2023-07-16T07:01:31;20.80;99.90
3334;DHT22;1679;50.392;8.008;2023-07-16T07:03:56;21.00;99.90
3334;DHT22;1679;50.392;8.008;2023-07-16T07:06:22;21.20;99.90
3334;DHT22;1679;50.392;8.008;2023-07-16T07:08:47;21.40;99.90
3334;DHT22;1679;50.392;8.008;2023-07-16T07:11:13;21.60;99.90
3334;DHT22;1679;50.392;8.008;2023-07-16T07:13:38;21.70;99.90
3334;DHT22;1679;50.392;8.008;2023-07-16T07:16:04;21.60;99.90
3334;DHT22;1679;50.392;8.008;2023-07-16T07:18:29;21.80;99.90
3334;DHT22;1679;50.392;8.008;2023-07-16T07:20:55;22.10;99.90
3334;DHT22;1679;50.392;8.008;2023-07-16T07:23:21;22.10;99.90
3334;DHT22;1679;50.392;8.008;2023-07-16T07:25:50;22.20;99.90
3334;DHT22;1679;50.392;8.008;2023-07-16T07:28:19;22.60;99.90
3334;DHT22;1679;50.392;8.008;2023-07-16T07:30:45;22.90;99.90
3334;DHT22;1679;50.392;8.008;2023-07-16T07:33:12;23.00;99.90
3334;DHT22;1679;50.392;8.008;2023-07-16T07:35:37;23.30;99.90
3334;DHT22;1679;50.392;8.008;2023-07-16T07:38:04;23.10;99.90
3334;DHT22;1679;50.392;8.008;2023-07-16T07:40:29;23.20;99.90
3334;DHT22;1679;50.392;8.008;2023-07-16T07:42:55;23.30;99.90
3334;DHT22;1679;50.392;8.008;2023-07-16T07:45:20;23.50;99.90
3334;DHT22;1679;50.392;8.008;2023-07-16T07:47:46;24.00;99.90
3334;DHT22;1679;50.392;8.008;2023-07-16T07:50:11;24.20;99.90
3334;DHT22;1679;50.392;8.008;2023-07-16T07:52:37;24.10;99.90
3334;DHT22;1679;50.392;8.008;2023-07-16T07:55:03;23.80;99.90
3334;DHT22;1679;50.392;8.008;2023-07-16T07:57:29;23.90;99.90
3334;DHT22;1679;50.392;8.008;2023-07-16T07:59:56;24.00;99.90
3334;DHT22;1679;50.392;8.008;2023-07-16T08:02:26;24.20;99.90
3334;DHT22;1679;50.392;8.008;2023-07-16T08:04:55;24.20;99.90
3334;DHT22;1679;50.392;8.008;2023-07-16T08:07:21;24.10;99.90
3334;DHT22;1679;50.392;8.008;2023-07-16T08:09:47;24.10;99.90
3334;DHT22;1679;50.392;8.008;2023-07-16T08:12:13;24.10;99.90
3334;DHT22;1679;50.392;8.008;2023-07-16T08:14:40;24.20;99.90
3334;DHT22;1679;50.392;8.008;2023-07-16T08:17:07;24.30;99.90
3334;DHT22;1679;50.392;8.008;2023-07-16T08:19:32;24.30;99.90
3334;DHT22;1679;50.392;8.008;2023-07-16T08:21:58;24.10;99.90
3334;DHT22;1679;50.392;8.008;2023-07-16T08:24:25;24.10;99.90
3334;DHT22;1679;50.392;8.008;2023-07-16T08:26:50;24.30;99.90
3334;DHT22;1679;50.392;8.008;2023-07-16T08:29:17;24.50;99.90
3334;DHT22;1679;50.392;8.008;2023-07-16T08:31:43;24.50;99.90
3334;DHT22;1679;50.392;8.008;2023-07-16T08:34:09;24.30;99.90
3334;DHT22;1679;50.392;8.008;2023-07-16T08:36:37;24.30;99.90
3334;DHT22;1679;50.392;8.008;2023-07-16T08:39:03;24.60;99.90
3334;DHT22;1679;50.392;8.008;2023-07-16T08:41:29;24.80;99.90
3334;DHT22;1679;50.392;8.008;2023-07-16T08:43:55;24.80;99.90
3334;DHT22;1679;50.392;8.008;2023-07-16T08:46:21;24.60;99.90
3334;DHT22;1679;50.392;8.008;2023-07-16T08:48:48;24.50;99.90
3334;DHT22;1679;50.392;8.008;2023-07-16T08:51:17;24.50;99.90
3334;DHT22;1679;50.392;8.008;2023-07-16T08:53:44;24.30;99.90
3334;DHT22;1679;50.392;8.008;2023-07-16T08:56:10;24.50;99.90
3334;DHT22;1679;50.392;8.008;2023-07-16T08:58:36;24.60;99.90
3334;DHT22;1679;50.392;8.008;2023-07-16T09:01:03;25.00;99.90
3334;DHT22;1679;50.392;8.008;2023-07-16T09:03:30;25.20;99.30
3334;DHT22;1679;50.392;8.008;2023-07-16T09:05:55;25.40;99.40
3334;DHT22;1679;50.392;8.008;2023-07-16T09:08:22;25.40;99.20
3334;DHT22;1679;50.392;8.008;2023-07-16T09:10:54;25.10;98.20
3334;DHT22;1679;50.392;8.008;2023-07-16T09:13:20;25.10;97.80
3334;DHT22;1679;50.392;8.008;2023-07-16T09:15:51;25.20;99.20
3334;DHT22;1679;50.392;8.008;2023-07-16T09:18:21;25.50;99.10
3334;DHT22;1679;50.392;8.008;2023-07-16T09:20:57;25.60;97.90
3334;DHT22;1679;50.392;8.008;2023-07-16T09:23:27;25.60;98.20
3334;DHT22;1679;50.392;8.008;2023-07-16T09:25:54;25.50;98.20
3334;DHT22;1679;50.392;8.008;2023-07-16T09:28:20;25.60;97.20
3334;DHT22;1679;50.392;8.008;2023-07-16T09:30:46;25.60;96.80
3334;DHT22;1679;50.392;8.008;2023-07-16T09:33:23;25.60;96.60
3334;DHT22;1679;50.392;8.008;2023-07-16T09:35:52;25.70;96.90
3334;DHT22;1679;50.392;8.008;2023-07-16T09:38:18;25.90;96.60
3334;DHT22;1679;50.392;8.008;2023-07-16T09:40:44;25.90;96.90
3334;DHT22;1679;50.392;8.008;2023-07-16T09:43:10;26.10;96.10
3334;DHT22;1679;50.392;8.008;2023-07-16T09:45:36;26.00;95.90
3334;DHT22;1679;50.392;8.008;2023-07-16T09:48:03;25.80;95.90
3334;DHT22;1679;50.392;8.008;2023-07-16T09:50:30;25.70;96.30
3334;DHT22;1679;50.392;8.008;2023-07-16T09:52:57;25.50;96.90
3334;DHT22;1679;50.392;8.008;2023-07-16T09:55:23;25.50;95.70
3334;DHT22;1679;50.392;8.008;2023-07-16T09:57:52;25.60;96.30
3334;DHT22;1679;50.392;8.008;2023-07-16T10:00:19;25.60;95.90
3334;DHT22;1679;50.392;8.008;2023-07-16T10:02:46;25.60;96.10
3334;DHT22;1679;50.392;8.008;2023-07-16T10:05:17;25.60;95.70
3334;DHT22;1679;50.392;8.008;2023-07-16T10:07:54;25.50;96.10
3334;DHT22;1679;50.392;8.008;2023-07-16T10:10:20;25.60;96.40
3334;DHT22;1679;50.392;8.008;2023-07-16T10:12:57;25.80;95.90
3334;DHT22;1679;50.392;8.008;2023-07-16T10:15:28;25.70;96.20
3334;DHT22;1679;50.392;8.008;2023-07-16T10:17:54;25.70;97.50
3334;DHT22;1679;50.392;8.008;2023-07-16T10:20:34;25.80;95.90
3334;DHT22;1679;50.392;8.008;2023-07-16T10:23:15;25.60;95.80
3334;DHT22;1679;50.392;8.008;2023-07-16T10:25:58;25.60;96.20
3334;DHT22;1679;50.392;8.008;2023-07-16T10:28:24;25.70;96.20
3334;DHT22;1679;50.392;8.008;2023-07-16T10:30:50;26.00;97.80
3334;DHT22;1679;50.392;8.008;2023-07-16T10:33:15;26.40;97.40
3334;DHT22;1679;50.392;8.008;2023-07-16T10:35:42;26.60;94.10
3334;DHT22;1679;50.392;8.008;2023-07-16T10:38:07;26.50;94.60
3334;DHT22;1679;50.392;8.008;2023-07-16T10:40:33;26.50;94.50
3334;DHT22;1679;50.392;8.008;2023-07-16T10:43:04;26.00;94.00
3334;DHT22;1679;50.392;8.008;2023-07-16T10:45:31;25.80;93.90
3334;DHT22;1679;50.392;8.008;2023-07-16T10:47:56;25.80;94.30
3334;DHT22;1679;50.392;8.008;2023-07-16T10:50:22;26.00;95.10
3334;DHT22;1679;50.392;8.008;2023-07-16T10:52:51;26.00;93.30
3334;DHT22;1679;50.392;8.008;2023-07-16T10:55:18;25.90;93.60
3334;DHT22;1679;50.392;8.008;2023-07-16T10:57:43;25.80;93.80
3334;DHT22;1679;50.392;8.008;2023-07-16T11:00:10;25.90;92.70
3334;DHT22;1679;50.392;8.008;2023-07-16T11:02:39;25.90;93.30
3334;DHT22;1679;50.392;8.008;2023-07-16T11:05:16;25.90;92.90
3334;DHT22;1679;50.392;8.008;2023-07-16T11:08:04;25.90;93.30
3334;DHT22;1679;50.392;8.008;2023-07-16T11:10:30;25.90;93.70
3334;DHT22;1679;50.392;8.008;2023-07-16T11:12:56;25.90;92.90
3334;DHT22;1679;50.392;8.008;2023-07-16T11:15:34;25.80;94.00
3334;DHT22;1679;50.392;8.008;2023-07-16T11:18:01;25.80;93.70
3334;DHT22;1679;50.392;8.008;2023-07-16T11:20:26;25.80;94.10
3334;DHT22;1679;50.392;8.008;2023-07-16T11:22:52;25.70;93.70
3334;DHT22;1679;50.392;8.008;2023-07-16T11:25:18;25.50;94.00
3334;DHT22;1679;50.392;8.008;2023-07-16T11:27:45;25.50;94.10
3334;DHT22;1679;50.392;8.008;2023-07-16T11:30:12;25.20;93.60
3334;DHT22;1679;50.392;8.008;2023-07-16T11:32:42;25.00;94.20
3334;DHT22;1679;50.392;8.008;2023-07-16T11:35:15;24.80;93.70
3334;DHT22;1679;50.392;8.008;2023-07-16T11:37:42;24.70;94.50
3334;DHT22;1679;50.392;8.008;2023-07-16T11:40:10;24.80;95.10
3334;DHT22;1679;50.392;8.008;2023-07-16T11:42:42;25.10;94.60
3334;DHT22;1679;50.392;8.008;2023-07-16T11:45:19;25.10;93.50
3334;DHT22;1679;50.392;8.008;2023-07-16T11:47:46;25.00;93.80
3334;DHT22;1679;50.392;8.008;2023-07-16T11:50:12;24.90;94.00
3334;DHT22;1679;50.392;8.008;2023-07-16T11:52:39;24.90;94.60
3334;DHT22;1679;50.392;8.008;2023-07-16T11:55:06;25.20;93.40
3334;DHT22;1679;50.392;8.008;2023-07-16T11:57:32;25.00;93.10
3334;DHT22;1679;50.392;8.008;2023-07-16T11:59:58;24.90;93.90
3334;DHT22;1679;50.392;8.008;2023-07-16T12:02:26;24.80;94.10
3334;DHT22;1679;50.392;8.008;2023-07-16T12:04:52;24.80;94.00
3334;DHT22;1679;50.392;8.008;2023-07-16T12:07:37;24.80;95.20
3334;DHT22;1679;50.392;8.008;2023-07-16T12:10:04;24.80;94.50
3334;DHT22;1679;50.392;8.008;2023-07-16T12:12:30;24.70;94.50
3334;DHT22;1679;50.392;8.008;2023-07-16T12:14:57;24.60;94.90
3334;DHT22;1679;50.392;8.008;2023-07-16T12:17:24;24.60;94.70
3334;DHT22;1679;50.392;8.008;2023-07-16T12:19:49;24.60;94.50
3334;DHT22;1679;50.392;8.008;2023-07-16T12:22:17;24.80;95.70
3334;DHT22;1679;50.392;8.008;2023-07-16T12:24:43;25.10;94.40
3334;DHT22;1679;50.392;8.008;2023-07-16T12:27:08;25.20;93.30
3334;DHT22;1679;50.392;8.008;2023-07-16T12:29:35;25.00;93.60
3334;DHT22;1679;50.392;8.008;2023-07-16T12:32:01;24.90;94.30
3334;DHT22;1679;50.392;8.008;2023-07-16T12:34:26;24.90;94.00
3334;DHT22;1679;50.392;8.008;2023-07-16T12:36:52;25.10;93.50
3334;DHT22;1679;50.392;8.008;2023-07-16T12:39:20;25.40;92.80
3334;DHT22;1679;50.392;8.008;2023-07-16T12:41:46;25.40;93.00
3334;DHT22;1679;50.392;8.008;2023-07-16T12:44:12;25.20;92.20
3334;DHT22;1679;50.392;8.008;2023-07-16T12:46:38;25.20;93.50
3334;DHT22;1679;50.392;8.008;2023-07-16T12:49:04;25.30;92.50
3334;DHT22;1679;50.392;8.008;2023-07-16T12:51:30;25.10;92.40
3334;DHT22;1679;50.392;8.008;2023-07-16T12:53:55;24.80;92.70
3334;DHT22;1679;50.392;8.008;2023-07-16T12:56:20;24.80;93.50
3334;DHT22;1679;50.392;8.008;2023-07-16T12:58:47;24.90;93.50
3334;DHT22;1679;50.392;8.008;2023-07-16T13:01:13;25.20;93.70
3334;DHT22;1679;50.392;8.008;2023-07-16T13:03:39;25.50;92.40
3334;DHT22;1679;50.392;8.008;2023-07-16T13:06:04;25.60;92.60
3334;DHT22;1679;50.392;8.008;2023-07-16T13:08:31;25.50;91.90
3334;DHT22;1679;50.392;8.008;2023-07-16T13:10:57;25.50;92.00
3334;DHT22;1679;50.392;8.008;2023-07-16T13:13:26;25.30;92.60
3334;DHT22;1679;50.392;8.008;2023-07-16T13:15:51;25.40;92.30
3334;DHT22;1679;50.392;8.008;2023-07-16T13:18:17;25.50;92.00
3334;DHT22;1679;50.392;8.008;2023-07-16T13:20:44;25.40;92.10
3334;DHT22;1679;50.392;8.008;2023-07-16T13:23:11;25.20;91.50
3334;DHT22;1679;50.392;8.008;2023-07-16T13:25:36;25.30;91.40
3334;DHT22;1679;50.392;8.008;2023-07-16T13:28:04;25.20;92.20
3334;DHT22;1679;50.392;8.008;2023-07-16T13:30:30;25.40;91.80
3334;DHT22;1679;50.392;8.008;2023-07-16T13:32:56;25.50;92.00
3334;DHT22;1679;50.392;8.008;2023-07-16T13:35:24;25.70;91.80
3334;DHT22;1679;50.392;8.008;2023-07-16T13:37:50;26.00;91.60
3334;DHT22;1679;50.392;8.008;2023-07-16T13:40:16;26.00;91.90
3334;DHT22;1679;50.392;8.008;2023-07-16T13:42:45;25.90;91.30
3334;DHT22;1679;50.392;8.008;2023-07-16T13:45:11;26.00;91.80
3334;DHT22;1679;50.392;8.008;2023-07-16T13:47:36;26.20;92.70
3334;DHT22;1679;50.392;8.008;2023-07-16T13:50:02;26.10;90.80
3334;DHT22;1679;50.392;8.008;2023-07-16T13:52:28;26.00;91.30
3334;DHT22;1679;50.392;8.008;2023-07-16T13:54:53;26.10;92.40
3334;DHT22;1679;50.392;8.008;2023-07-16T13:57:19;26.20;91.80
3334;DHT22;1679;50.392;8.008;2023-07-16T13:59:45;26.40;91.40
3334;DHT22;1679;50.392;8.008;2023-07-16T14:02:11;26.50;90.50
3334;DHT22;1679;50.392;8.008;2023-07-16T14:04:36;26.50;90.50
3334;DHT22;1679;50.392;8.008;2023-07-16T14:07:02;26.50;90.10
3334;DHT22;1679;50.392;8.008;2023-07-16T14:09:28;26.30;90.10
3334;DHT22;1679;50.392;8.008;2023-07-16T14:11:54;26.00;91.20
3334;DHT22;1679;50.392;8.008;2023-07-16T14:14:21;26.00;91.80
3334;DHT22;1679;50.392;8.008;2023-07-16T14:16:49;25.90;90.80
3334;DHT22;1679;50.392;8.008;2023-07-16T14:19:14;25.90;90.80
3334;DHT22;1679;50.392;8.008;2023-07-16T14:21:40;25.70;91.10
3334;DHT22;1679;50.392;8.008;2023-07-16T14:24:06;25.50;91.40
3334;DHT22;1679;50.392;8.008;2023-07-16T14:26:32;25.60;91.10
3334;DHT22;1679;50.392;8.008;2023-07-16T14:28:58;25.50;91.00
3334;DHT22;1679;50.392;8.008;2023-07-16T14:31:24;25.50;90.60
3334;DHT22;1679;50.392;8.008;2023-07-16T14:33:49;25.50;90.90
3334;DHT22;1679;50.392;8.008;2023-07-16T14:36:16;25.60;90.80
3334;DHT22;1679;50.392;8.008;2023-07-16T14:38:43;25.60;91.10
3334;DHT22;1679;50.392;8.008;2023-07-16T14:41:09;25.70;91.60
3334;DHT22;1679;50.392;8.008;2023-07-16T14:43:35;25.80;91.40
3334;DHT22;1679;50.392;8.008;2023-07-16T14:46:00;25.80;91.20
3334;DHT22;1679;50.392;8.008;2023-07-16T14:48:26;25.80;90.90
3334;DHT22;1679;50.392;8.008;2023-07-16T14:50:54;25.70;90.60
3334;DHT22;1679;50.392;8.008;2023-07-16T14:53:20;25.60;90.40
3334;DHT22;1679;50.392;8.008;2023-07-16T14:55:49;25.60;90.40
3334;DHT22;1679;50.392;8.008;2023-07-16T14:58:19;25.60;89.90
3334;DHT22;1679;50.392;8.008;2023-07-16T15:00:45;25.70;90.40
3334;DHT22;1679;50.392;8.008;2023-07-16T15:03:10;26.00;91.10
3334;DHT22;1679;50.392;8.008;2023-07-16T15:05:36;26.20;90.30
3334;DHT22;1679;50.392;8.008;2023-07-16T15:08:02;26.20;90.40
3334;DHT22;1679;50.392;8.008;2023-07-16T15:10:29;26.20;89.00
3334;DHT22;1679;50.392;8.008;2023-07-16T15:12:54;26.10;90.20
3334;DHT22;1679;50.392;8.008;2023-07-16T15:15:20;26.00;89.20
3334;DHT22;1679;50.392;8.008;2023-07-16T15:17:45;25.90;90.00
3334;DHT22;1679;50.392;8.008;2023-07-16T15:20:11;26.10;89.90
3334;DHT22;1679;50.392;8.008;2023-07-16T15:22:38;26.20;89.80
3334;DHT22;1679;50.392;8.008;2023-07-16T15:25:04;26.10;90.10
3334;DHT22;1679;50.392;8.008;2023-07-16T15:27:30;26.10;90.70
3334;DHT22;1679;50.392;8.008;2023-07-16T15:29:56;26.10;88.50
3334;DHT22;1679;50.392;8.008;2023-07-16T15:32:23;26.10;90.00
3334;DHT22;1679;50.392;8.008;2023-07-16T15:34:48;26.10;89.60
3334;DHT22;1679;50.392;8.008;2023-07-16T15:37:14;26.10;89.40
3334;DHT22;1679;50.392;8.008;2023-07-16T15:39:41;26.10;89.30
3334;DHT22;1679;50.392;8.008;2023-07-16T15:42:06;26.10;87.80
3334;DHT22;1679;50.392;8.008;2023-07-16T15:44:33;26.10;88.70
3334;DHT22;1679;50.392;8.008;2023-07-16T15:46:58;26.20;88.40
3334;DHT22;1679;50.392;8.008;2023-07-16T15:49:26;26.30;87.70
3334;DHT22;1679;50.392;8.008;2023-07-16T15:51:51;26.30;87.50
3334;DHT22;1679;50.392;8.008;2023-07-16T15:54:17;26.20;88.90
3334;DHT22;1679;50.392;8.008;2023-07-16T15:56:43;26.20;88.30
3334;DHT22;1679;50.392;8.008;2023-07-16T15:59:08;26.10;88.50
3334;DHT22;1679;50.392;8.008;2023-07-16T16:01:34;26.10;90.50